sensor_id;sensor_type;location;lat;lon;timestamp;pressure;altitude;pressure_sealevel;temperature;humidity
72124;BME280;63818;37.134;-8.548;2022-12-29T00:04:14;102283.5;;;15.3;70.2
72124;BME280;63818;37.134;-8.548;2022-12-29T00:09:02;102276.9;;;15.3;70.5
72124;BME280;63818;37.134;-8.548;2022-12-29T00:13:54;102271.3;;;15.3;70.8
72124;BME280;63818;37.134;-8.548;2022-12-29T00:18:42;102272.1;;;15.3;70.9
72124;BME280;63818;37.134;-8.548;2022-12-29T00:23:31;102272.6;;;15.3;70.6
72124;BME280;63818;37.134;-8.548;2022-12-29T00:28:21;102260.8;;;15.2;70.4
72124;BME280;63818;37.134;-8.548;2022-12-29T00:33:15;102259.2;;;15.2;70.1
72124;BME280;63818;37.134;-8.548;2022-12-29T00:38:07;102250.3;;;15.2;70.2
72124;BME280;63818;37.134;-8.548;2022-12-29T00:42:56;102246.4;;;15.1;69.7
72124;BME280;63818;37.134;-8.548;2022-12-29T00:47:44;102247.1;;;15.0;70.2
72124;BME280;63818;37.134;-8.548;2022-12-29T00:52:33;102245.3;;;15.0;70.3
72124;BME280;63818;37.134;-8.548;2022-12-29T00:57:22;102241.5;;;15.0;70.1
72124;BME280;63818;37.134;-8.548;2022-12-29T01:02:13;102229.5;;;14.7;70.4
72124;BME280;63818;37.134;-8.548;2022-12-29T01:07:02;102240.4;;;14.6;71.1
72124;BME280;63818;37.134;-8.548;2022-12-29T01:11:51;102248.1;;;14.6;71.2
72124;BME280;63818;37.134;-8.548;2022-12-29T01:16:40;102250.5;;;14.8;70.8
72124;BME280;63818;37.134;-8.548;2022-12-29T01:21:28;102245.8;;;14.9;70.2
72124;BME280;63818;37.134;-8.548;2022-12-29T01:26:18;102245.6;;;14.8;69.5
72124;BME280;63818;37.134;-8.548;2022-12-29T01:31:06;102245.4;;;14.8;69.6
72124;BME280;63818;37.134;-8.548;2022-12-29T01:36:01;102236.6;;;14.7;69.5
72124;BME280;63818;37.134;-8.548;2022-12-29T01:40:53;102235.3;;;14.7;69.7
72124;BME280;63818;37.134;-8.548;2022-12-29T01:45:47;102230.7;;;14.7;69.7
72124;BME280;63818;37.134;-8.548;2022-12-29T01:50:39;102224.6;;;14.8;69.8
72124;BME280;63818;37.134;-8.548;2022-12-29T01:55:31;102213.9;;;14.7;70.0
72124;BME280;63818;37.134;-8.548;2022-12-29T02:00:24;102215.7;;;14.6;70.1
72124;BME280;63818;37.134;-8.548;2022-12-29T02:05:18;102220.4;;;14.6;70.9
72124;BME280;63818;37.134;-8.548;2022-12-29T02:10:08;102209.4;;;14.6;70.6
72124;BME280;63818;37.134;-8.548;2022-12-29T02:15:00;102212.1;;;14.6;69.8
72124;BME280;63818;37.134;-8.548;2022-12-29T02:34:18;102213.2;;;14.6;69.1
72124;BME280;63818;37.134;-8.548;2022-12-29T02:39:15;102217.7;;;14.4;69.7
72124;BME280;63818;37.134;-8.548;2022-12-29T02:44:12;102216.2;;;14.0;71.3
72124;BME280;63818;37.134;-8.548;2022-12-29T02:49:09;102216.2;;;14.1;71.4
72124;BME280;63818;37.134;-8.548;2022-12-29T02:53:59;102216.1;;;14.2;70.9
72124;BME280;63818;37.134;-8.548;2022-12-29T02:58:48;102225.4;;;14.3;70.9
72124;BME280;63818;37.134;-8.548;2022-12-29T03:03:47;102219.2;;;14.3;70.2
72124;BME280;63818;37.134;-8.548;2022-12-29T03:08:43;102209.0;;;13.9;70.9
72124;BME280;63818;37.134;-8.548;2022-12-29T03:13:35;102205.6;;;13.8;71.5
72124;BME280;63818;37.134;-8.548;2022-12-29T03:18:34;102217.8;;;13.6;72.1
72124;BME280;63818;37.134;-8.548;2022-12-29T03:23:27;102217.9;;;13.5;72.4
72124;BME280;63818;37.134;-8.548;2022-12-29T03:28:21;102223.0;;;13.7;72.3
72124;BME280;63818;37.134;-8.548;2022-12-29T03:33:14;102215.9;;;14.0;71.7
72124;BME280;63818;37.134;-8.548;2022-12-29T03:38:10;102211.1;;;14.1;70.6
72124;BME280;63818;37.134;-8.548;2022-12-29T03:43:01;102225.3;;;14.1;70.1
72124;BME280;63818;37.134;-8.548;2022-12-29T03:47:50;102217.4;;;14.2;69.9
72124;BME280;63818;37.134;-8.548;2022-12-29T03:52:42;102213.4;;;14.2;69.9
72124;BME280;63818;37.134;-8.548;2022-12-29T03:57:31;102217.6;;;14.1;70.3
72124;BME280;63818;37.134;-8.548;2022-12-29T04:02:20;102211.1;;;14.1;70.4
72124;BME280;63818;37.134;-8.548;2022-12-29T04:07:12;102214.6;;;14.1;70.7
72124;BME280;63818;37.134;-8.548;2022-12-29T04:12:00;102206.4;;;14.1;70.2
72124;BME280;63818;37.134;-8.548;2022-12-29T04:16:49;102216.1;;;14.2;70.2
72124;BME280;63818;37.134;-8.548;2022-12-29T04:21:41;102210.1;;;14.2;70.1
72124;BME280;63818;37.134;-8.548;2022-12-29T04:26:33;102199.8;;;14.2;69.7
72124;BME280;63818;37.134;-8.548;2022-12-29T04:31:21;102198.5;;;14.2;69.8
72124;BME280;63818;37.134;-8.548;2022-12-29T04:36:14;102194.7;;;14.2;69.7
72124;BME280;63818;37.134;-8.548;2022-12-29T04:41:03;102197.3;;;14.1;70.3
72124;BME280;63818;37.134;-8.548;2022-12-29T04:45:56;102201.2;;;14.0;70.4
72124;BME280;63818;37.134;-8.548;2022-12-29T04:50:47;102203.7;;;13.8;70.9
72124;BME280;63818;37.134;-8.548;2022-12-29T04:55:41;102199.7;;;13.8;71.3
72124;BME280;63818;37.134;-8.548;2022-12-29T05:00:29;102213.8;;;13.7;71.4
72124;BME280;63818;37.134;-8.548;2022-12-29T05:05:18;102207.8;;;13.8;71.8
72124;BME280;63818;37.134;-8.548;2022-12-29T05:10:10;102204.5;;;14.0;72.2
72124;BME280;63818;37.134;-8.548;2022-12-29T05:15:00;102198.0;;;14.0;71.5
72124;BME280;63818;37.134;-8.548;2022-12-29T05:19:48;102208.2;;;14.1;71.4
72124;BME280;63818;37.134;-8.548;2022-12-29T05:24:38;102203.8;;;14.1;71.0
72124;BME280;63818;37.134;-8.548;2022-12-29T05:29:27;102200.9;;;14.1;70.6
72124;BME280;63818;37.134;-8.548;2022-12-29T05:34:16;102212.6;;;14.0;71.1
72124;BME280;63818;37.134;-8.548;2022-12-29T05:39:05;102209.4;;;13.9;71.8
72124;BME280;63818;37.134;-8.548;2022-12-29T05:43:53;102214.5;;;14.0;71.7
72124;BME280;63818;37.134;-8.548;2022-12-29T05:48:42;102213.4;;;14.0;71.9
72124;BME280;63818;37.134;-8.548;2022-12-29T05:53:31;102212.6;;;14.0;71.8
72124;BME280;63818;37.134;-8.548;2022-12-29T05:58:24;102222.0;;;14.1;72.1
72124;BME280;63818;37.134;-8.548;2022-12-29T06:03:13;102231.5;;;14.0;72.4
72124;BME280;63818;37.134;-8.548;2022-12-29T06:08:05;102239.3;;;14.0;72.3
72124;BME280;63818;37.134;-8.548;2022-12-29T06:12:54;102256.0;;;14.1;72.5
72124;BME280;63818;37.134;-8.548;2022-12-29T06:17:46;102258.4;;;14.1;72.2
72124;BME280;63818;37.134;-8.548;2022-12-29T06:22:35;102268.4;;;14.1;72.0
72124;BME280;63818;37.134;-8.548;2022-12-29T06:27:24;102262.7;;;14.1;71.6
72124;BME280;63818;37.134;-8.548;2022-12-29T06:32:13;102276.2;;;13.9;72.3
72124;BME280;63818;37.134;-8.548;2022-12-29T06:37:02;102287.8;;;13.9;72.6
72124;BME280;63818;37.134;-8.548;2022-12-29T06:41:54;102300.5;;;13.9;72.9
72124;BME280;63818;37.134;-8.548;2022-12-29T06:46:43;102304.5;;;14.0;73.2
72124;BME280;63818;37.134;-8.548;2022-12-29T06:51:32;102294.1;;;13.9;73.4
72124;BME280;63818;37.134;-8.548;2022-12-29T06:56:21;102298.6;;;13.7;74.5
72124;BME280;63818;37.134;-8.548;2022-12-29T07:01:09;102301.7;;;13.6;75.4
72124;BME280;63818;37.134;-8.548;2022-12-29T07:05:58;102304.7;;;13.6;76.0
72124;BME280;63818;37.134;-8.548;2022-12-29T07:10:47;102281.3;;;13.7;76.2
72124;BME280;63818;37.134;-8.548;2022-12-29T07:15:36;102287.5;;;13.7;76.2
72124;BME280;63818;37.134;-8.548;2022-12-29T07:20:28;102289.9;;;13.8;76.5
72124;BME280;63818;37.134;-8.548;2022-12-29T07:25:17;102300.9;;;13.8;76.3
72124;BME280;63818;37.134;-8.548;2022-12-29T07:30:06;102302.0;;;13.9;76.3
72124;BME280;63818;37.134;-8.548;2022-12-29T07:34:55;102300.0;;;13.9;76.6
72124;BME280;63818;37.134;-8.548;2022-12-29T07:39:44;102303.7;;;14.0;76.2
72124;BME280;63818;37.134;-8.548;2022-12-29T07:44:34;102312.0;;;14.0;76.2
72124;BME280;63818;37.134;-8.548;2022-12-29T07:49:23;102316.1;;;14.0;76.1
72124;BME280;63818;37.134;-8.548;2022-12-29T07:54:16;102328.6;;;14.0;75.9
72124;BME280;63818;37.134;-8.548;2022-12-29T07:59:05;102331.5;;;14.0;75.7
72124;BME280;63818;37.134;-8.548;2022-12-29T08:03:54;102343.2;;;14.0;75.6
72124;BME280;63818;37.134;-8.548;2022-12-29T08:08:43;102344.5;;;14.0;75.8
72124;BME280;63818;37.134;-8.548;2022-12-29T08:13:34;102355.3;;;14.0;75.9
72124;BME280;63818;37.134;-8.548;2022-12-29T08:18:26;102362.0;;;14.0;75.8
72124;BME280;63818;37.134;-8.548;2022-12-29T08:23:15;102363.0;;;14.1;76.0
72124;BME280;63818;37.134;-8.548;2022-12-29T08:28:04;102368.4;;;14.1;75.7
72124;BME280;63818;37.134;-8.548;2022-12-29T08:32:52;102369.8;;;14.1;75.7
72124;BME280;63818;37.134;-8.548;2022-12-29T08:37:44;102372.2;;;14.1;75.7
72124;BME280;63818;37.134;-8.548;2022-12-29T08:42:32;102380.4;;;14.0;76.5
72124;BME280;63818;37.134;-8.548;2022-12-29T08:47:27;102379.0;;;14.0;76.5
72124;BME280;63818;37.134;-8.548;2022-12-29T08:52:16;102375.2;;;13.9;76.6
72124;BME280;63818;37.134;-8.548;2022-12-29T08:57:07;102375.4;;;13.9;76.9
72124;BME280;63818;37.134;-8.548;2022-12-29T09:01:55;102378.8;;;14.0;77.1
72124;BME280;63818;37.134;-8.548;2022-12-29T09:06:44;102378.2;;;14.0;76.9
72124;BME280;63818;37.134;-8.548;2022-12-29T09:11:33;102384.0;;;14.0;77.5
72124;BME280;63818;37.134;-8.548;2022-12-29T09:16:23;102388.5;;;14.1;77.8
72124;BME280;63818;37.134;-8.548;2022-12-29T09:21:20;102394.6;;;14.1;77.8
72124;BME280;63818;37.134;-8.548;2022-12-29T09:26:09;102397.4;;;14.2;78.0
72124;BME280;63818;37.134;-8.548;2022-12-29T09:30:58;102410.3;;;14.3;78.0
72124;BME280;63818;37.134;-8.548;2022-12-29T09:35:51;102403.8;;;14.3;78.0
72124;BME280;63818;37.134;-8.548;2022-12-29T09:40:40;102410.6;;;14.5;77.9
72124;BME280;63818;37.134;-8.548;2022-12-29T09:45:33;102414.0;;;14.6;77.6
72124;BME280;63818;37.134;-8.548;2022-12-29T09:50:27;102405.0;;;14.6;78.0
72124;BME280;63818;37.134;-8.548;2022-12-29T09:55:19;102413.0;;;14.7;77.8
72124;BME280;63818;37.134;-8.548;2022-12-29T10:00:15;102421.1;;;14.7;78.2
72124;BME280;63818;37.134;-8.548;2022-12-29T10:05:16;102436.2;;;14.8;78.4
72124;BME280;63818;37.134;-8.548;2022-12-29T10:10:23;102445.6;;;14.8;78.5
72124;BME280;63818;37.134;-8.548;2022-12-29T10:15:24;102444.2;;;14.8;78.8
72124;BME280;63818;37.134;-8.548;2022-12-29T10:20:31;102449.6;;;14.9;79.1
72124;BME280;63818;37.134;-8.548;2022-12-29T10:25:26;102451.1;;;14.9;79.4
72124;BME280;63818;37.134;-8.548;2022-12-29T10:30:17;102455.9;;;15.0;79.6
72124;BME280;63818;37.134;-8.548;2022-12-29T10:35:14;102449.5;;;15.1;79.5
72124;BME280;63818;37.134;-8.548;2022-12-29T10:40:13;102452.7;;;15.1;79.8
72124;BME280;63818;37.134;-8.548;2022-12-29T10:45:04;102451.5;;;15.2;80.3
72124;BME280;63818;37.134;-8.548;2022-12-29T10:49:53;102443.0;;;15.2;80.7
72124;BME280;63818;37.134;-8.548;2022-12-29T10:54:46;102446.0;;;15.4;84.4
72124;BME280;63818;37.134;-8.548;2022-12-29T10:59:35;102447.2;;;15.5;86.8
72124;BME280;63818;37.134;-8.548;2022-12-29T11:04:38;102445.9;;;15.6;89.8
72124;BME280;63818;37.134;-8.548;2022-12-29T11:09:32;102444.0;;;15.7;91.7
72124;BME280;63818;37.134;-8.548;2022-12-29T11:14:28;102438.7;;;15.7;93.6
72124;BME280;63818;37.134;-8.548;2022-12-29T11:19:27;102437.1;;;15.8;94.6
72124;BME280;63818;37.134;-8.548;2022-12-29T11:24:26;102438.2;;;15.8;95.0
72124;BME280;63818;37.134;-8.548;2022-12-29T11:29:37;102430.6;;;15.8;95.9
72124;BME280;63818;37.134;-8.548;2022-12-29T11:34:30;102430.0;;;15.9;96.5
72124;BME280;63818;37.134;-8.548;2022-12-29T11:39:28;102431.2;;;15.9;97.3
72124;BME280;63818;37.134;-8.548;2022-12-29T11:44:18;102425.4;;;16.0;97.9
72124;BME280;63818;37.134;-8.548;2022-12-29T11:49:12;102422.9;;;16.0;98.4
72124;BME280;63818;37.134;-8.548;2022-12-29T11:54:03;102412.5;;;16.1;98.6
72124;BME280;63818;37.134;-8.548;2022-12-29T11:58:53;102407.8;;;16.1;99.1
72124;BME280;63818;37.134;-8.548;2022-12-29T12:03:45;102401.1;;;16.1;99.4
72124;BME280;63818;37.134;-8.548;2022-12-29T12:08:39;102403.4;;;16.2;99.8
72124;BME280;63818;37.134;-8.548;2022-12-29T12:13:38;102385.9;;;16.2;99.9
72124;BME280;63818;37.134;-8.548;2022-12-29T12:18:52;102380.3;;;16.3;99.8
72124;BME280;63818;37.134;-8.548;2022-12-29T12:20:19;102382.2;;;16.3;100.0
72124;BME280;63818;37.134;-8.548;2022-12-29T12:25:17;102341.8;;;18.9;83.6
72124;BME280;63818;37.134;-8.548;2022-12-29T12:26:30;102359.2;;;18.9;83.8
72124;BME280;63818;37.134;-8.548;2022-12-29T12:28:13;102361.2;;;18.2;89.0
72124;BME280;63818;37.134;-8.548;2022-12-29T12:29:51;102353.3;;;18.0;86.7
72124;BME280;63818;37.134;-8.548;2022-12-29T12:34:42;102350.8;;;17.0;91.1
72124;BME280;63818;37.134;-8.548;2022-12-29T12:39:46;102350.8;;;16.8;94.3
72124;BME280;63818;37.134;-8.548;2022-12-29T12:44:38;102342.0;;;16.7;95.6
72124;BME280;63818;37.134;-8.548;2022-12-29T12:50:15;102323.5;;;16.7;95.7
72124;BME280;63818;37.134;-8.548;2022-12-29T12:55:28;102324.7;;;16.7;95.6
72124;BME280;63818;37.134;-8.548;2022-12-29T13:00:13;102310.7;;;16.8;95.7
72124;BME280;63818;37.134;-8.548;2022-12-29T13:05:06;102307.1;;;16.9;95.5
72124;BME280;63818;37.134;-8.548;2022-12-29T13:10:05;102302.0;;;16.9;95.3
72124;BME280;63818;37.134;-8.548;2022-12-29T13:15:04;102303.0;;;17.0;95.3
72124;BME280;63818;37.134;-8.548;2022-12-29T13:20:01;102290.6;;;17.0;95.5
72124;BME280;63818;37.134;-8.548;2022-12-29T13:24:54;102284.2;;;17.1;95.0
72124;BME280;63818;37.134;-8.548;2022-12-29T13:29:47;102286.2;;;17.2;94.9
72124;BME280;63818;37.134;-8.548;2022-12-29T13:34:42;102275.0;;;17.3;94.5
72124;BME280;63818;37.134;-8.548;2022-12-29T13:39:34;102278.9;;;17.4;93.3
72124;BME280;63818;37.134;-8.548;2022-12-29T13:44:26;102270.0;;;17.5;92.1
72124;BME280;63818;37.134;-8.548;2022-12-29T13:49:17;102259.4;;;17.6;91.0
72124;BME280;63818;37.134;-8.548;2022-12-29T13:54:13;102251.5;;;17.7;89.7
72124;BME280;63818;37.134;-8.548;2022-12-29T13:59:07;102252.3;;;17.9;88.4
72124;BME280;63818;37.134;-8.548;2022-12-29T14:03:58;102253.6;;;18.0;85.8
72124;BME280;63818;37.134;-8.548;2022-12-29T14:08:46;102244.8;;;18.2;83.9
72124;BME280;63818;37.134;-8.548;2022-12-29T14:13:37;102238.2;;;18.4;82.6
72124;BME280;63818;37.134;-8.548;2022-12-29T14:18:26;102231.4;;;19.2;79.0
72124;BME280;63818;37.134;-8.548;2022-12-29T14:23:36;102205.8;;;21.4;69.3
72124;BME280;63818;37.134;-8.548;2022-12-29T14:33:24;102163.0;;;27.3;50.3
72124;BME280;63818;37.134;-8.548;2022-12-29T14:38:18;102165.1;;;26.0;51.3
72124;BME280;63818;37.134;-8.548;2022-12-29T14:43:13;102147.4;;;29.5;44.3
72124;BME280;63818;37.134;-8.548;2022-12-29T14:48:31;102136.9;;;31.3;39.3
72124;BME280;63818;37.134;-8.548;2022-12-29T14:53:44;102139.7;;;31.5;38.4
72124;BME280;63818;37.134;-8.548;2022-12-29T14:58:35;102137.3;;;31.3;38.5
72124;BME280;63818;37.134;-8.548;2022-12-29T15:03:27;102150.6;;;31.1;38.5
72124;BME280;63818;37.134;-8.548;2022-12-29T15:08:21;102154.4;;;30.4;40.0
72124;BME280;63818;37.134;-8.548;2022-12-29T15:13:16;102160.5;;;29.4;41.7
72124;BME280;63818;37.134;-8.548;2022-12-29T15:18:14;102162.0;;;26.9;48.3
72124;BME280;63818;37.134;-8.548;2022-12-29T15:23:02;102182.9;;;25.5;52.7
72124;BME280;63818;37.134;-8.548;2022-12-29T15:27:51;102184.5;;;25.2;54.2
72124;BME280;63818;37.134;-8.548;2022-12-29T15:32:43;102190.9;;;24.2;57.5
72124;BME280;63818;37.134;-8.548;2022-12-29T15:37:34;102203.5;;;22.9;61.6
72124;BME280;63818;37.134;-8.548;2022-12-29T15:42:32;102211.4;;;22.1;65.4
72124;BME280;63818;37.134;-8.548;2022-12-29T15:47:25;102224.2;;;21.6;67.7
72124;BME280;63818;37.134;-8.548;2022-12-29T15:52:17;102237.4;;;21.1;70.3
72124;BME280;63818;37.134;-8.548;2022-12-29T15:57:23;102236.1;;;20.8;71.6
72124;BME280;63818;37.134;-8.548;2022-12-29T16:02:12;102240.8;;;20.5;73.1
72124;BME280;63818;37.134;-8.548;2022-12-29T16:07:01;102241.2;;;20.3;74.0
72124;BME280;63818;37.134;-8.548;2022-12-29T16:11:51;102249.7;;;20.0;75.3
72124;BME280;63818;37.134;-8.548;2022-12-29T16:17:02;102262.2;;;19.8;76.5
72124;BME280;63818;37.134;-8.548;2022-12-29T16:21:49;102259.8;;;19.5;78.1
72124;BME280;63818;37.134;-8.548;2022-12-29T16:26:35;102249.9;;;19.2;79.8
72124;BME280;63818;37.134;-8.548;2022-12-29T16:31:24;102260.6;;;19.1;80.6
72124;BME280;63818;37.134;-8.548;2022-12-29T16:38:15;102270.5;;;19.0;80.9
72124;BME280;63818;37.134;-8.548;2022-12-29T16:43:03;102264.9;;;18.9;82.1
72124;BME280;63818;37.134;-8.548;2022-12-29T16:48:09;102270.2;;;18.8;82.5
72124;BME280;63818;37.134;-8.548;2022-12-29T16:52:49;102275.7;;;18.8;82.9
72124;BME280;63818;37.134;-8.548;2022-12-29T16:57:39;102273.9;;;18.6;83.5
72124;BME280;63818;37.134;-8.548;2022-12-29T17:02:32;102276.0;;;18.6;84.2
72124;BME280;63818;37.134;-8.548;2022-12-29T17:07:24;102273.0;;;18.5;84.8
72124;BME280;63818;37.134;-8.548;2022-12-29T17:12:13;102276.5;;;18.4;84.9
72124;BME280;63818;37.134;-8.548;2022-12-29T17:17:02;102278.7;;;18.3;85.4
72124;BME280;63818;37.134;-8.548;2022-12-29T17:21:51;102295.7;;;18.3;85.2
72124;BME280;63818;37.134;-8.548;2022-12-29T17:26:37;102295.9;;;18.2;85.8
72124;BME280;63818;37.134;-8.548;2022-12-29T17:31:26;102292.5;;;18.2;85.7
72124;BME280;63818;37.134;-8.548;2022-12-29T17:36:20;102296.0;;;18.1;86.2
72124;BME280;63818;37.134;-8.548;2022-12-29T17:41:10;102298.9;;;18.0;86.7
72124;BME280;63818;37.134;-8.548;2022-12-29T17:46:01;102287.8;;;18.0;86.7
72124;BME280;63818;37.134;-8.548;2022-12-29T17:50:49;102293.1;;;18.0;86.5
72124;BME280;63818;37.134;-8.548;2022-12-29T17:55:36;102284.3;;;17.9;86.4
72124;BME280;63818;37.134;-8.548;2022-12-29T18:00:25;102295.0;;;17.9;86.4
72124;BME280;63818;37.134;-8.548;2022-12-29T18:05:17;102287.2;;;17.9;86.6
72124;BME280;63818;37.134;-8.548;2022-12-29T18:10:06;102286.4;;;17.9;86.5
72124;BME280;63818;37.134;-8.548;2022-12-29T18:14:52;102300.3;;;17.8;87.0
72124;BME280;63818;37.134;-8.548;2022-12-29T18:19:38;102301.0;;;17.8;87.2
72124;BME280;63818;37.134;-8.548;2022-12-29T18:24:29;102300.3;;;17.8;86.9
72124;BME280;63818;37.134;-8.548;2022-12-29T18:29:17;102302.5;;;17.7;87.3
72124;BME280;63818;37.134;-8.548;2022-12-29T18:34:11;102303.2;;;17.7;87.0
72124;BME280;63818;37.134;-8.548;2022-12-29T18:38:57;102308.8;;;17.7;87.0
72124;BME280;63818;37.134;-8.548;2022-12-29T18:43:46;102311.3;;;17.6;87.4
72124;BME280;63818;37.134;-8.548;2022-12-29T18:48:33;102312.9;;;17.6;87.3
72124;BME280;63818;37.134;-8.548;2022-12-29T18:53:21;102308.1;;;17.6;87.4
72124;BME280;63818;37.134;-8.548;2022-12-29T18:58:12;102314.1;;;17.6;87.7
72124;BME280;63818;37.134;-8.548;2022-12-29T19:02:58;102316.9;;;17.6;87.8
72124;BME280;63818;37.134;-8.548;2022-12-29T19:07:47;102317.2;;;17.5;88.3
72124;BME280;63818;37.134;-8.548;2022-12-29T19:12:33;102319.4;;;17.5;88.0
72124;BME280;63818;37.134;-8.548;2022-12-29T19:17:19;102323.1;;;17.5;88.4
72124;BME280;63818;37.134;-8.548;2022-12-29T19:22:06;102323.4;;;17.5;88.6
72124;BME280;63818;37.134;-8.548;2022-12-29T19:27:16;102324.0;;;17.4;88.7
72124;BME280;63818;37.134;-8.548;2022-12-29T19:32:02;102319.2;;;17.4;89.1
72124;BME280;63818;37.134;-8.548;2022-12-29T19:36:49;102335.5;;;17.4;89.5
72124;BME280;63818;37.134;-8.548;2022-12-29T19:41:35;102331.0;;;17.4;89.4
72124;BME280;63818;37.134;-8.548;2022-12-29T19:46:24;102332.4;;;17.3;89.5
72124;BME280;63818;37.134;-8.548;2022-12-29T19:51:12;102334.2;;;17.3;89.9
72124;BME280;63818;37.134;-8.548;2022-12-29T19:56:02;102331.3;;;17.3;90.1
72124;BME280;63818;37.134;-8.548;2022-12-29T20:01:04;102332.2;;;17.2;90.2
72124;BME280;63818;37.134;-8.548;2022-12-29T20:05:53;102320.6;;;17.2;90.2
72124;BME280;63818;37.134;-8.548;2022-12-29T20:10:40;102319.5;;;17.1;90.1
72124;BME280;63818;37.134;-8.548;2022-12-29T20:15:27;102321.8;;;17.2;90.1
72124;BME280;63818;37.134;-8.548;2022-12-29T20:20:16;102312.1;;;17.1;90.0
72124;BME280;63818;37.134;-8.548;2022-12-29T20:25:04;102322.4;;;17.1;90.2
72124;BME280;63818;37.134;-8.548;2022-12-29T20:29:50;102322.7;;;17.1;90.5
72124;BME280;63818;37.134;-8.548;2022-12-29T20:34:39;102323.9;;;17.1;90.1
72124;BME280;63818;37.134;-8.548;2022-12-29T20:39:34;102324.5;;;17.1;89.8
72124;BME280;63818;37.134;-8.548;2022-12-29T20:44:20;102325.7;;;17.0;88.8
72124;BME280;63818;37.134;-8.548;2022-12-29T20:49:07;102329.1;;;17.0;88.0
72124;BME280;63818;37.134;-8.548;2022-12-29T20:58:47;102331.9;;;16.9;87.1
72124;BME280;63818;37.134;-8.548;2022-12-29T21:03:34;102328.4;;;16.9;87.0
72124;BME280;63818;37.134;-8.548;2022-12-29T21:08:22;102341.5;;;16.9;86.6
72124;BME280;63818;37.134;-8.548;2022-12-29T21:13:09;102343.2;;;16.9;86.0
72124;BME280;63818;37.134;-8.548;2022-12-29T21:17:55;102348.1;;;16.8;86.5
72124;BME280;63818;37.134;-8.548;2022-12-29T21:22:41;102345.5;;;16.8;86.2
72124;BME280;63818;37.134;-8.548;2022-12-29T21:27:27;102344.8;;;16.8;86.1
72124;BME280;63818;37.134;-8.548;2022-12-29T21:32:13;102341.4;;;16.7;85.3
72124;BME280;63818;37.134;-8.548;2022-12-29T21:37:05;102349.6;;;16.7;85.2
72124;BME280;63818;37.134;-8.548;2022-12-29T21:41:51;102350.5;;;16.6;85.3
72124;BME280;63818;37.134;-8.548;2022-12-29T21:46:38;102347.6;;;16.6;85.1
72124;BME280;63818;37.134;-8.548;2022-12-29T21:51:25;102339.3;;;16.6;84.6
72124;BME280;63818;37.134;-8.548;2022-12-29T21:56:13;102333.2;;;16.5;84.5
72124;BME280;63818;37.134;-8.548;2022-12-29T22:01:11;102345.7;;;16.5;84.6
72124;BME280;63818;37.134;-8.548;2022-12-29T22:05:58;102336.3;;;16.4;84.2
72124;BME280;63818;37.134;-8.548;2022-12-29T22:10:47;102336.1;;;16.4;83.5
72124;BME280;63818;37.134;-8.548;2022-12-29T22:15:35;102331.6;;;16.4;83.2
72124;BME280;63818;37.134;-8.548;2022-12-29T22:20:24;102328.1;;;16.4;82.9
72124;BME280;63818;37.134;-8.548;2022-12-29T22:25:11;102326.3;;;16.3;82.9
72124;BME280;63818;37.134;-8.548;2022-12-29T22:30:02;102326.1;;;16.3;82.5
72124;BME280;63818;37.134;-8.548;2022-12-29T22:34:49;102322.4;;;16.2;82.4
72124;BME280;63818;37.134;-8.548;2022-12-29T22:39:35;102328.9;;;16.2;82.4
72124;BME280;63818;37.134;-8.548;2022-12-29T22:44:38;102339.3;;;16.2;82.4
72124;BME280;63818;37.134;-8.548;2022-12-29T22:49:24;102344.5;;;16.2;81.8
72124;BME280;63818;37.134;-8.548;2022-12-29T22:54:10;102344.3;;;16.1;82.2
72124;BME280;63818;37.134;-8.548;2022-12-29T22:58:58;102347.6;;;16.1;82.0
72124;BME280;63818;37.134;-8.548;2022-12-29T23:03:44;102348.7;;;16.1;81.8
72124;BME280;63818;37.134;-8.548;2022-12-29T23:08:32;102339.8;;;16.1;81.7
72124;BME280;63818;37.134;-8.548;2022-12-29T23:13:24;102342.6;;;16.0;81.5
72124;BME280;63818;37.134;-8.548;2022-12-29T23:18:10;102340.2;;;16.0;81.4
72124;BME280;63818;37.134;-8.548;2022-12-29T23:22:56;102346.3;;;16.0;81.7
72124;BME280;63818;37.134;-8.548;2022-12-29T23:27:44;102347.1;;;16.0;81.6
72124;BME280;63818;37.134;-8.548;2022-12-29T23:32:31;102337.0;;;16.0;81.8
72124;BME280;63818;37.134;-8.548;2022-12-29T23:37:17;102340.0;;;16.0;81.4
72124;BME280;63818;37.134;-8.548;2022-12-29T23:42:05;102337.6;;;16.0;81.5
72124;BME280;63818;37.134;-8.548;2022-12-29T23:51:38;102337.2;;;15.9;81.2
72124;BME280;63818;37.134;-8.548;2022-12-29T23:56:24;102341.5;;;15.8;81.5
